Главная страница
METAR-TAF:

METAR-TAF

Аэропорты :

Гуйлинь, Китай

широта: 25-20N, долгота: 110-18E, высота над уровнем моря: 166 м

Текущие метеонаблюдения

Эта сводка был подготовлена 1 час и 5 минут назад, в 10:00 UTC
Ветер 6 Узел от северо-северо-восточный
Температура 30°C
Влажность 62%
Давление 1009 hPa
Видимость 10 км и более
небольшая облачность на высоте 4000 фута

METAR: ZGKL 241000Z 02003MPS 9999 FEW040 30/22 Q1009 NOSIG

Время: 19:05 (11:05 UTC)

Прогноз

Эта сводка был подготовлена 8 часа и 2 минут назад, в 03:03 UTC
Прогноз действительный с 24-го 06 UTC до 25-го 06 UTC
Ветер 6 Узел от северо-восточный
Видимость: 6000 м
Отдельные облака на высоте 3000 фута
Рассеянная облачность на высоте 5000 фута

TAF: ZGKL 240303Z 2406/2506 05003MPS 6000 SCT030 BKN050 TX29/2407Z TN21/2422Z

Метеонаблюдения и прогнозы для более 4000 аэропортов (сводки METAR и TAF).

Имеющиеся станции представлены на карте желтыми и красными точками.

Чтобы увидеть название станции, наведите на нее мышь.

Затем щелкните, чтобы увидеть метеонаблюдения и метеопрогнозы.

Управление картой: чтобы увеличить масштаб, щелкните зеленые кнопки с черным крестиком; чтобы уменьшить масштаб, щелкните зеленую кнопку с тире; для просмотра соседних карт щелкайте зеленые стрелки.


METAR-TAF: